sensor_id;sensor_type;location;lat;lon;timestamp;pressure;altitude;pressure_sealevel;temperature;humidity
55610;BME280;41486;52.502;13.486;2024-01-06T00:00:42;99987.13;;;0.77;100.00
55610;BME280;41486;52.502;13.486;2024-01-06T00:03:10;99983.63;;;0.78;100.00
55610;BME280;41486;52.502;13.486;2024-01-06T00:05:41;99986.63;;;0.69;100.00
55610;BME280;41486;52.502;13.486;2024-01-06T00:08:09;99989.91;;;0.54;100.00
55610;BME280;41486;52.502;13.486;2024-01-06T00:10:37;99987.13;;;0.39;100.00
55610;BME280;41486;52.502;13.486;2024-01-06T00:13:06;99993.00;;;0.62;100.00
55610;BME280;41486;52.502;13.486;2024-01-06T00:15:34;99997.38;;;0.98;100.00
55610;BME280;41486;52.502;13.486;2024-01-06T00:18:02;99989.00;;;0.93;100.00
55610;BME280;41486;52.502;13.486;2024-01-06T00:20:30;99991.72;;;0.90;100.00
55610;BME280;41486;52.502;13.486;2024-01-06T00:22:58;99993.28;;;0.75;100.00
55610;BME280;41486;52.502;13.486;2024-01-06T00:25:26;99989.00;;;0.93;100.00
55610;BME280;41486;52.502;13.486;2024-01-06T00:27:54;99994.59;;;0.84;100.00
55610;BME280;41486;52.502;13.486;2024-01-06T00:30:24;99987.94;;;0.59;100.00
55610;BME280;41486;52.502;13.486;2024-01-06T00:32:52;99992.09;;;0.63;100.00
55610;BME280;41486;52.502;13.486;2024-01-06T00:35:20;99986.91;;;0.63;100.00
55610;BME280;41486;52.502;13.486;2024-01-06T00:37:48;99988.53;;;0.66;100.00
55610;BME280;41486;52.502;13.486;2024-01-06T00:40:16;99987.19;;;0.76;100.00
55610;BME280;41486;52.502;13.486;2024-01-06T00:42:45;99987.16;;;0.38;100.00
55610;BME280;41486;52.502;13.486;2024-01-06T00:45:14;99992.78;;;0.47;100.00
55610;BME280;41486;52.502;13.486;2024-01-06T00:47:43;100006.28;;;0.54;100.00
55610;BME280;41486;52.502;13.486;2024-01-06T00:50:12;100005.59;;;0.70;100.00
55610;BME280;41486;52.502;13.486;2024-01-06T00:52:41;100000.34;;;0.90;100.00
55610;BME280;41486;52.502;13.486;2024-01-06T00:55:09;100002.88;;;0.54;100.00
55610;BME280;41486;52.502;13.486;2024-01-06T00:57:37;100006.22;;;0.56;100.00
55610;BME280;41486;52.502;13.486;2024-01-06T01:00:06;100023.28;;;0.41;100.00
55610;BME280;41486;52.502;13.486;2024-01-06T01:02:35;100018.81;;;0.63;100.00
55610;BME280;41486;52.502;13.486;2024-01-06T01:05:07;100014.25;;;0.69;100.00
55610;BME280;41486;52.502;13.486;2024-01-06T01:07:35;100016.44;;;0.59;100.00
55610;BME280;41486;52.502;13.486;2024-01-06T01:10:04;100015.94;;;0.51;100.00
55610;BME280;41486;52.502;13.486;2024-01-06T01:12:32;100008.38;;;0.84;100.00
55610;BME280;41486;52.502;13.486;2024-01-06T01:15:01;100018.75;;;1.03;100.00
55610;BME280;41486;52.502;13.486;2024-01-06T01:17:29;100022.59;;;0.75;100.00
55610;BME280;41486;52.502;13.486;2024-01-06T01:19:57;100032.25;;;0.91;100.00
55610;BME280;41486;52.502;13.486;2024-01-06T01:22:27;100035.25;;;0.62;100.00
55610;BME280;41486;52.502;13.486;2024-01-06T01:24:55;100035.63;;;0.55;100.00
55610;BME280;41486;52.502;13.486;2024-01-06T01:27:23;100039.31;;;0.28;100.00
55610;BME280;41486;52.502;13.486;2024-01-06T01:29:51;100029.44;;;0.38;100.00
55610;BME280;41486;52.502;13.486;2024-01-06T01:32:21;100031.94;;;0.40;100.00
55610;BME280;41486;52.502;13.486;2024-01-06T01:34:50;100023.41;;;0.38;100.00
55610;BME280;41486;52.502;13.486;2024-01-06T01:37:18;100026.19;;;0.73;100.00
55610;BME280;41486;52.502;13.486;2024-01-06T01:39:47;100028.41;;;0.22;100.00
55610;BME280;41486;52.502;13.486;2024-01-06T01:42:15;100025.88;;;0.60;100.00
55610;BME280;41486;52.502;13.486;2024-01-06T01:44:43;100035.16;;;0.45;100.00
55610;BME280;41486;52.502;13.486;2024-01-06T01:47:11;100038.41;;;0.50;100.00
55610;BME280;41486;52.502;13.486;2024-01-06T01:49:40;100044.03;;;0.79;100.00
55610;BME280;41486;52.502;13.486;2024-01-06T01:52:08;100039.16;;;0.52;100.00
55610;BME280;41486;52.502;13.486;2024-01-06T01:54:36;100038.47;;;0.49;100.00
55610;BME280;41486;52.502;13.486;2024-01-06T01:57:06;100042.31;;;0.40;100.00
55610;BME280;41486;52.502;13.486;2024-01-06T01:59:34;100043.34;;;0.36;100.00
55610;BME280;41486;52.502;13.486;2024-01-06T02:02:02;100046.69;;;0.58;100.00
55610;BME280;41486;52.502;13.486;2024-01-06T02:04:30;100043.13;;;0.40;100.00
55610;BME280;41486;52.502;13.486;2024-01-06T02:06:58;100051.88;;;0.38;100.00
55610;BME280;41486;52.502;13.486;2024-01-06T02:09:26;100051.47;;;0.47;100.00
55610;BME280;41486;52.502;13.486;2024-01-06T02:11:56;100042.69;;;0.30;100.00
55610;BME280;41486;52.502;13.486;2024-01-06T02:14:26;100050.50;;;0.10;100.00
55610;BME280;41486;52.502;13.486;2024-01-06T02:16:54;100060.31;;;0.22;100.00
55610;BME280;41486;52.502;13.486;2024-01-06T02:19:22;100059.78;;;0.14;100.00
55610;BME280;41486;52.502;13.486;2024-01-06T02:21:52;100055.53;;;0.34;100.00
55610;BME280;41486;52.502;13.486;2024-01-06T02:24:20;100059.84;;;0.33;100.00
55610;BME280;41486;52.502;13.486;2024-01-06T02:26:48;100058.88;;;0.15;100.00
55610;BME280;41486;52.502;13.486;2024-01-06T02:29:17;100058.94;;;0.34;100.00
55610;BME280;41486;52.502;13.486;2024-01-06T02:31:45;100047.94;;;0.29;100.00
55610;BME280;41486;52.502;13.486;2024-01-06T02:34:13;100059.50;;;0.41;100.00
55610;BME280;41486;52.502;13.486;2024-01-06T02:36:41;100062.19;;;0.39;100.00
55610;BME280;41486;52.502;13.486;2024-01-06T02:39:11;100067.13;;;0.65;100.00
55610;BME280;41486;52.502;13.486;2024-01-06T02:41:39;100069.41;;;0.52;100.00
55610;BME280;41486;52.502;13.486;2024-01-06T02:44:07;100079.38;;;0.40;100.00
55610;BME280;41486;52.502;13.486;2024-01-06T02:46:39;100080.69;;;0.70;100.00
55610;BME280;41486;52.502;13.486;2024-01-06T02:49:07;100076.72;;;0.42;100.00
55610;BME280;41486;52.502;13.486;2024-01-06T02:51:36;100081.22;;;0.38;100.00
55610;BME280;41486;52.502;13.486;2024-01-06T02:54:04;100079.38;;;0.40;100.00
55610;BME280;41486;52.502;13.486;2024-01-06T02:56:33;100081.00;;;0.22;100.00
55610;BME280;41486;52.502;13.486;2024-01-06T02:59:01;100079.25;;;0.43;100.00
55610;BME280;41486;52.502;13.486;2024-01-06T03:01:31;100082.53;;;0.68;100.00
55610;BME280;41486;52.502;13.486;2024-01-06T03:03:59;100079.94;;;0.47;100.00
55610;BME280;41486;52.502;13.486;2024-01-06T03:06:29;100082.09;;;0.37;100.00
55610;BME280;41486;52.502;13.486;2024-01-06T03:08:57;100072.72;;;0.14;100.00
55610;BME280;41486;52.502;13.486;2024-01-06T03:11:25;100080.63;;;0.11;100.00
55610;BME280;41486;52.502;13.486;2024-01-06T03:13:57;100091.75;;;0.13;100.00
55610;BME280;41486;52.502;13.486;2024-01-06T03:16:25;100086.31;;;0.40;100.00
55610;BME280;41486;52.502;13.486;2024-01-06T03:18:53;100097.38;;;0.43;100.00
55610;BME280;41486;52.502;13.486;2024-01-06T03:21:21;100096.91;;;0.54;100.00
55610;BME280;41486;52.502;13.486;2024-01-06T03:23:49;100093.47;;;0.33;100.00
55610;BME280;41486;52.502;13.486;2024-01-06T03:26:17;100090.69;;;0.38;100.00
55610;BME280;41486;52.502;13.486;2024-01-06T03:28:45;100094.00;;;0.41;100.00
55610;BME280;41486;52.502;13.486;2024-01-06T03:31:15;100100.03;;;0.42;100.00
55610;BME280;41486;52.502;13.486;2024-01-06T03:33:43;100096.78;;;0.37;100.00
55610;BME280;41486;52.502;13.486;2024-01-06T03:36:12;100099.84;;;0.46;100.00
55610;BME280;41486;52.502;13.486;2024-01-06T03:38:40;100100.75;;;0.45;100.00
55610;BME280;41486;52.502;13.486;2024-01-06T03:41:08;100105.97;;;0.23;100.00
55610;BME280;41486;52.502;13.486;2024-01-06T03:43:36;100104.50;;;0.38;100.00
55610;BME280;41486;52.502;13.486;2024-01-06T03:46:05;100105.19;;;0.21;100.00
55610;BME280;41486;52.502;13.486;2024-01-06T03:48:34;100117.25;;;0.43;100.00
55610;BME280;41486;52.502;13.486;2024-01-06T03:51:03;100113.56;;;0.07;100.00
55610;BME280;41486;52.502;13.486;2024-01-06T03:53:31;100109.13;;;0.09;100.00
55610;BME280;41486;52.502;13.486;2024-01-06T03:55:59;100114.53;;;0.25;100.00
55610;BME280;41486;52.502;13.486;2024-01-06T03:58:27;100118.72;;;0.28;100.00
55610;BME280;41486;52.502;13.486;2024-01-06T04:00:55;100116.22;;;0.26;100.00
55610;BME280;41486;52.502;13.486;2024-01-06T04:03:23;100119.69;;;0.25;100.00
55610;BME280;41486;52.502;13.486;2024-01-06T04:05:53;100121.38;;;0.47;100.00
55610;BME280;41486;52.502;13.486;2024-01-06T04:08:21;100123.19;;;0.66;100.00
55610;BME280;41486;52.502;13.486;2024-01-06T04:10:49;100124.22;;;0.41;100.00
55610;BME280;41486;52.502;13.486;2024-01-06T04:13:17;100121.91;;;0.35;100.00
55610;BME280;41486;52.502;13.486;2024-01-06T04:15:45;100120.47;;;0.48;100.00
55610;BME280;41486;52.502;13.486;2024-01-06T04:18:13;100127.78;;;0.59;100.00
55610;BME280;41486;52.502;13.486;2024-01-06T04:20:41;100130.56;;;0.34;100.00
55610;BME280;41486;52.502;13.486;2024-01-06T04:23:11;100140.72;;;0.59;100.00
55610;BME280;41486;52.502;13.486;2024-01-06T04:25:39;100142.94;;;0.47;100.00
55610;BME280;41486;52.502;13.486;2024-01-06T04:28:07;100140.13;;;0.52;100.00
55610;BME280;41486;52.502;13.486;2024-01-06T04:30:35;100145.00;;;0.39;100.00
55610;BME280;41486;52.502;13.486;2024-01-06T04:33:03;100145.38;;;0.51;100.00
55610;BME280;41486;52.502;13.486;2024-01-06T04:35:31;100152.44;;;0.47;100.00
55610;BME280;41486;52.502;13.486;2024-01-06T04:37:59;100151.06;;;0.59;100.00
55610;BME280;41486;52.502;13.486;2024-01-06T04:40:29;100152.97;;;0.35;100.00
55610;BME280;41486;52.502;13.486;2024-01-06T04:42:57;100149.91;;;0.25;100.00
55610;BME280;41486;52.502;13.486;2024-01-06T04:45:25;100154.00;;;0.51;100.00
55610;BME280;41486;52.502;13.486;2024-01-06T04:47:53;100150.75;;;0.46;100.00
55610;BME280;41486;52.502;13.486;2024-01-06T04:50:21;100158.53;;;0.25;100.00
55610;BME280;41486;52.502;13.486;2024-01-06T04:52:48;100158.97;;;0.35;100.00
55610;BME280;41486;52.502;13.486;2024-01-06T04:55:16;100163.16;;;0.17;100.00
55610;BME280;41486;52.502;13.486;2024-01-06T05:00:16;100177.25;;;0.32;100.00
55610;BME280;41486;52.502;13.486;2024-01-06T05:02:45;100178.06;;;0.33;100.00
55610;BME280;41486;52.502;13.486;2024-01-06T05:05:13;100183.44;;;0.49;100.00
55610;BME280;41486;52.502;13.486;2024-01-06T05:07:41;100180.22;;;0.43;100.00
55610;BME280;41486;52.502;13.486;2024-01-06T05:10:09;100183.34;;;0.29;100.00
55610;BME280;41486;52.502;13.486;2024-01-06T05:12:37;100183.16;;;0.13;100.00
55610;BME280;41486;52.502;13.486;2024-01-06T05:15:07;100182.00;;;0.21;100.00
55610;BME280;41486;52.502;13.486;2024-01-06T05:17:35;100189.44;;;0.28;100.00
55610;BME280;41486;52.502;13.486;2024-01-06T05:20:04;100188.97;;;0.19;100.00
55610;BME280;41486;52.502;13.486;2024-01-06T05:22:33;100187.53;;;0.11;100.00
55610;BME280;41486;52.502;13.486;2024-01-06T05:25:01;100181.47;;;0.12;100.00
55610;BME280;41486;52.502;13.486;2024-01-06T05:27:30;100189.69;;;0.22;100.00
55610;BME280;41486;52.502;13.486;2024-01-06T05:29:57;100194.59;;;0.08;100.00
55610;BME280;41486;52.502;13.486;2024-01-06T05:32:27;100195.31;;;-0.11;100.00
55610;BME280;41486;52.502;13.486;2024-01-06T05:34:55;100191.56;;;-0.04;100.00
55610;BME280;41486;52.502;13.486;2024-01-06T05:37:23;100193.94;;;0.03;100.00
55610;BME280;41486;52.502;13.486;2024-01-06T05:39:51;100198.69;;;0.13;100.00
55610;BME280;41486;52.502;13.486;2024-01-06T05:42:21;100199.47;;;0.15;100.00
55610;BME280;41486;52.502;13.486;2024-01-06T05:44:50;100211.16;;;0.46;100.00
55610;BME280;41486;52.502;13.486;2024-01-06T05:47:18;100208.06;;;0.16;100.00
55610;BME280;41486;52.502;13.486;2024-01-06T05:49:47;100212.28;;;0.19;100.00
55610;BME280;41486;52.502;13.486;2024-01-06T05:52:15;100217.09;;;0.06;100.00
55610;BME280;41486;52.502;13.486;2024-01-06T05:54:43;100215.19;;;0.11;100.00
55610;BME280;41486;52.502;13.486;2024-01-06T05:57:12;100224.22;;;0.21;100.00
55610;BME280;41486;52.502;13.486;2024-01-06T05:59:40;100222.53;;;0.20;100.00
55610;BME280;41486;52.502;13.486;2024-01-06T06:02:08;100231.72;;;0.07;100.00
55610;BME280;41486;52.502;13.486;2024-01-06T06:04:36;100222.03;;;0.12;100.00
55610;BME280;41486;52.502;13.486;2024-01-06T06:07:05;100229.97;;;0.07;100.00
55610;BME280;41486;52.502;13.486;2024-01-06T06:09:33;100223.22;;;0.25;100.00
55610;BME280;41486;52.502;13.486;2024-01-06T06:12:02;100231.63;;;0.08;100.00
55610;BME280;41486;52.502;13.486;2024-01-06T06:14:30;100239.03;;;0.18;100.00
55610;BME280;41486;52.502;13.486;2024-01-06T06:16:58;100240.16;;;0.12;100.00
55610;BME280;41486;52.502;13.486;2024-01-06T06:19:26;100250.63;;;0.09;100.00
55610;BME280;41486;52.502;13.486;2024-01-06T06:21:54;100251.38;;;-0.11;100.00
55610;BME280;41486;52.502;13.486;2024-01-06T06:24:23;100259.03;;;0.14;100.00
55610;BME280;41486;52.502;13.486;2024-01-06T06:26:51;100276.16;;;0.17;100.00
55610;BME280;41486;52.502;13.486;2024-01-06T06:29:19;100274.44;;;0.17;100.00
55610;BME280;41486;52.502;13.486;2024-01-06T06:31:48;100266.75;;;0.15;100.00
55610;BME280;41486;52.502;13.486;2024-01-06T06:34:16;100281.41;;;0.15;100.00
55610;BME280;41486;52.502;13.486;2024-01-06T06:36:44;100275.03;;;0.02;100.00
55610;BME280;41486;52.502;13.486;2024-01-06T06:39:12;100278.91;;;0.13;100.00
55610;BME280;41486;52.502;13.486;2024-01-06T06:41:42;100290.34;;;-0.16;100.00
55610;BME280;41486;52.502;13.486;2024-01-06T06:44:10;100289.16;;;-0.07;100.00
55610;BME280;41486;52.502;13.486;2024-01-06T06:46:38;100296.50;;;-0.19;100.00
55610;BME280;41486;52.502;13.486;2024-01-06T06:49:06;100303.56;;;0.00;100.00
55610;BME280;41486;52.502;13.486;2024-01-06T06:51:35;100308.19;;;-0.08;100.00
55610;BME280;41486;52.502;13.486;2024-01-06T06:54:03;100312.16;;;0.01;100.00
55610;BME280;41486;52.502;13.486;2024-01-06T06:56:31;100314.63;;;0.04;100.00
55610;BME280;41486;52.502;13.486;2024-01-06T06:59:00;100316.16;;;-0.14;100.00
55610;BME280;41486;52.502;13.486;2024-01-06T07:01:28;100323.75;;;-0.10;100.00
55610;BME280;41486;52.502;13.486;2024-01-06T07:04:00;100331.63;;;-0.13;100.00
55610;BME280;41486;52.502;13.486;2024-01-06T07:06:29;100341.19;;;-0.15;100.00
55610;BME280;41486;52.502;13.486;2024-01-06T07:08:57;100347.72;;;-0.28;100.00
55610;BME280;41486;52.502;13.486;2024-01-06T07:11:25;100363.59;;;-0.39;100.00
55610;BME280;41486;52.502;13.486;2024-01-06T07:13:54;100365.16;;;-0.35;100.00
55610;BME280;41486;52.502;13.486;2024-01-06T07:16:23;100358.94;;;-0.29;100.00
55610;BME280;41486;52.502;13.486;2024-01-06T07:18:51;100364.44;;;-0.39;100.00
55610;BME280;41486;52.502;13.486;2024-01-06T07:21:20;100366.53;;;-0.25;100.00
55610;BME280;41486;52.502;13.486;2024-01-06T07:23:48;100358.50;;;-0.17;100.00
55610;BME280;41486;52.502;13.486;2024-01-06T07:26:16;100368.19;;;-0.24;100.00
55610;BME280;41486;52.502;13.486;2024-01-06T07:28:44;100378.38;;;-0.19;100.00
55610;BME280;41486;52.502;13.486;2024-01-06T07:31:12;100382.66;;;-0.18;100.00
55610;BME280;41486;52.502;13.486;2024-01-06T07:33:42;100386.69;;;-0.09;100.00
55610;BME280;41486;52.502;13.486;2024-01-06T07:36:10;100397.03;;;-0.35;100.00
55610;BME280;41486;52.502;13.486;2024-01-06T07:38:38;100397.66;;;-0.28;100.00
55610;BME280;41486;52.502;13.486;2024-01-06T07:41:06;100398.28;;;-0.45;100.00
55610;BME280;41486;52.502;13.486;2024-01-06T07:43:34;100396.03;;;-0.30;100.00
55610;BME280;41486;52.502;13.486;2024-01-06T07:46:03;100402.47;;;-0.17;100.00
55610;BME280;41486;52.502;13.486;2024-01-06T07:48:31;100401.16;;;-0.29;100.00
55610;BME280;41486;52.502;13.486;2024-01-06T07:51:01;100407.16;;;-0.54;100.00
55610;BME280;41486;52.502;13.486;2024-01-06T07:53:30;100413.13;;;-0.52;100.00
55610;BME280;41486;52.502;13.486;2024-01-06T07:55:58;100415.13;;;-0.60;100.00
55610;BME280;41486;52.502;13.486;2024-01-06T07:58:26;100427.38;;;-0.65;100.00
55610;BME280;41486;52.502;13.486;2024-01-06T08:00:55;100422.59;;;-0.51;100.00
55610;BME280;41486;52.502;13.486;2024-01-06T08:03:23;100435.31;;;-0.71;100.00
55610;BME280;41486;52.502;13.486;2024-01-06T08:05:51;100434.50;;;-0.46;100.00
55610;BME280;41486;52.502;13.486;2024-01-06T08:08:22;100442.53;;;-0.54;100.00
55610;BME280;41486;52.502;13.486;2024-01-06T08:10:50;100448.91;;;-0.39;100.00
55610;BME280;41486;52.502;13.486;2024-01-06T08:13:18;100459.81;;;-0.56;100.00
55610;BME280;41486;52.502;13.486;2024-01-06T08:15:46;100451.59;;;-0.42;100.00
55610;BME280;41486;52.502;13.486;2024-01-06T08:18:15;100460.84;;;-0.62;100.00
55610;BME280;41486;52.502;13.486;2024-01-06T08:20:43;100459.00;;;-0.58;100.00
55610;BME280;41486;52.502;13.486;2024-01-06T08:23:11;100456.53;;;-0.61;100.00
55610;BME280;41486;52.502;13.486;2024-01-06T08:25:40;100457.22;;;-0.83;100.00
55610;BME280;41486;52.502;13.486;2024-01-06T08:28:08;100451.25;;;-0.58;100.00
55610;BME280;41486;52.502;13.486;2024-01-06T08:30:36;100462.72;;;-0.92;100.00
55610;BME280;41486;52.502;13.486;2024-01-06T08:33:04;100470.44;;;-0.66;100.00
55610;BME280;41486;52.502;13.486;2024-01-06T08:35:32;100476.81;;;-0.76;100.00
55610;BME280;41486;52.502;13.486;2024-01-06T08:38:01;100476.81;;;-0.76;100.00
55610;BME280;41486;52.502;13.486;2024-01-06T08:40:29;100473.16;;;-0.69;100.00
55610;BME280;41486;52.502;13.486;2024-01-06T08:42:58;100478.00;;;-0.59;100.00
55610;BME280;41486;52.502;13.486;2024-01-06T08:45:26;100485.47;;;-0.77;100.00
55610;BME280;41486;52.502;13.486;2024-01-06T08:47:54;100496.06;;;-0.58;100.00
55610;BME280;41486;52.502;13.486;2024-01-06T08:50:22;100492.47;;;-0.27;100.00
55610;BME280;41486;52.502;13.486;2024-01-06T08:52:50;100497.47;;;-0.76;100.00
55610;BME280;41486;52.502;13.486;2024-01-06T08:55:18;100496.28;;;-0.66;100.00
55610;BME280;41486;52.502;13.486;2024-01-06T08:57:46;100503.25;;;-0.14;100.00
55610;BME280;41486;52.502;13.486;2024-01-06T09:00:16;100500.19;;;-0.52;100.00
55610;BME280;41486;52.502;13.486;2024-01-06T09:02:45;100502.56;;;-0.46;100.00
55610;BME280;41486;52.502;13.486;2024-01-06T09:05:13;100516.47;;;-0.50;100.00
55610;BME280;41486;52.502;13.486;2024-01-06T09:07:41;100521.38;;;-0.69;100.00
55610;BME280;41486;52.502;13.486;2024-01-06T09:10:09;100524.44;;;-0.56;100.00
55610;BME280;41486;52.502;13.486;2024-01-06T09:12:37;100527.81;;;-0.54;100.00
55610;BME280;41486;52.502;13.486;2024-01-06T09:15:06;100537.56;;;-0.62;100.00
55610;BME280;41486;52.502;13.486;2024-01-06T09:17:35;100534.13;;;-0.63;100.00
55610;BME280;41486;52.502;13.486;2024-01-06T09:20:04;100539.06;;;-0.55;100.00
55610;BME280;41486;52.502;13.486;2024-01-06T09:22:32;100541.56;;;-0.52;100.00
55610;BME280;41486;52.502;13.486;2024-01-06T09:25:00;100539.53;;;-0.71;100.00
55610;BME280;41486;52.502;13.486;2024-01-06T09:27:28;100545.31;;;-0.91;100.00
55610;BME280;41486;52.502;13.486;2024-01-06T09:29:57;100548.66;;;-0.59;100.00
55610;BME280;41486;52.502;13.486;2024-01-06T09:32:25;100550.34;;;-0.58;100.00
55610;BME280;41486;52.502;13.486;2024-01-06T09:34:54;100556.47;;;-0.60;100.00
55610;BME280;41486;52.502;13.486;2024-01-06T09:37:22;100562.22;;;-0.52;100.00
55610;BME280;41486;52.502;13.486;2024-01-06T09:39:50;100569.19;;;-0.54;100.00
55610;BME280;41486;52.502;13.486;2024-01-06T09:42:18;100560.75;;;-0.89;100.00
55610;BME280;41486;52.502;13.486;2024-01-06T09:44:47;100563.22;;;-0.56;100.00
55610;BME280;41486;52.502;13.486;2024-01-06T09:47:18;100564.16;;;-0.59;100.00
55610;BME280;41486;52.502;13.486;2024-01-06T09:49:48;100570.59;;;-0.72;100.00
55610;BME280;41486;52.502;13.486;2024-01-06T09:52:21;100564.22;;;-0.60;100.00
55610;BME280;41486;52.502;13.486;2024-01-06T09:54:51;100569.25;;;-0.57;100.00
55610;BME280;41486;52.502;13.486;2024-01-06T09:57:20;100571.97;;;-0.89;100.00
55610;BME280;41486;52.502;13.486;2024-01-06T09:59:49;100579.47;;;-0.53;100.00
55610;BME280;41486;52.502;13.486;2024-01-06T10:02:17;100582.44;;;-0.65;100.00
55610;BME280;41486;52.502;13.486;2024-01-06T10:04:45;100578.84;;;-0.61;100.00
55610;BME280;41486;52.502;13.486;2024-01-06T10:07:13;100578.44;;;-0.75;100.00
55610;BME280;41486;52.502;13.486;2024-01-06T10:09:42;100587.31;;;-0.56;100.00
55610;BME280;41486;52.502;13.486;2024-01-06T10:12:10;100586.81;;;-0.67;100.00
55610;BME280;41486;52.502;13.486;2024-01-06T10:14:38;100603.63;;;-0.54;100.00
55610;BME280;41486;52.502;13.486;2024-01-06T10:17:07;100601.13;;;-0.85;100.00
55610;BME280;41486;52.502;13.486;2024-01-06T10:19:35;100603.00;;;-0.62;100.00
55610;BME280;41486;52.502;13.486;2024-01-06T10:22:05;100601.16;;;-0.57;100.00
55610;BME280;41486;52.502;13.486;2024-01-06T10:24:36;100605.44;;;-0.57;100.00
55610;BME280;41486;52.502;13.486;2024-01-06T10:27:06;100592.38;;;-0.53;100.00
55610;BME280;41486;52.502;13.486;2024-01-06T10:29:35;100582.66;;;-0.44;100.00
55610;BME280;41486;52.502;13.486;2024-01-06T10:32:04;100597.69;;;-0.57;100.00
55610;BME280;41486;52.502;13.486;2024-01-06T10:34:32;100588.16;;;-0.55;100.00
55610;BME280;41486;52.502;13.486;2024-01-06T10:37:03;100595.84;;;-0.82;100.00
55610;BME280;41486;52.502;13.486;2024-01-06T10:39:32;100604.63;;;-0.58;100.00
55610;BME280;41486;52.502;13.486;2024-01-06T10:42:07;100607.06;;;-0.83;100.00
55610;BME280;41486;52.502;13.486;2024-01-06T10:44:37;100606.81;;;-0.74;100.00
55610;BME280;41486;52.502;13.486;2024-01-06T10:47:10;100606.53;;;-0.65;100.00
55610;BME280;41486;52.502;13.486;2024-01-06T10:49:39;100600.94;;;-0.79;100.00
55610;BME280;41486;52.502;13.486;2024-01-06T10:52:08;100597.28;;;-0.72;100.00
55610;BME280;41486;52.502;13.486;2024-01-06T10:54:38;100599.91;;;-0.73;100.00
55610;BME280;41486;52.502;13.486;2024-01-06T10:57:09;100597.91;;;-0.64;100.00
55610;BME280;41486;52.502;13.486;2024-01-06T10:59:38;100602.97;;;-0.60;100.00
55610;BME280;41486;52.502;13.486;2024-01-06T11:02:08;100600.88;;;-0.77;100.00
55610;BME280;41486;52.502;13.486;2024-01-06T11:04:37;100604.84;;;-0.66;100.00
55610;BME280;41486;52.502;13.486;2024-01-06T11:07:07;100604.28;;;-0.75;100.00
55610;BME280;41486;52.502;13.486;2024-01-06T11:09:37;100609.94;;;-0.62;100.00
55610;BME280;41486;52.502;13.486;2024-01-06T11:12:09;100610.41;;;-0.50;100.00
55610;BME280;41486;52.502;13.486;2024-01-06T11:14:39;100604.50;;;-0.55;100.00
55610;BME280;41486;52.502;13.486;2024-01-06T11:17:07;100609.94;;;-0.64;100.00
55610;BME280;41486;52.502;13.486;2024-01-06T11:19:44;100611.50;;;-0.57;100.00
55610;BME280;41486;52.502;13.486;2024-01-06T11:22:19;100617.63;;;-0.61;100.00
55610;BME280;41486;52.502;13.486;2024-01-06T11:24:48;100610.75;;;-0.62;100.00
55610;BME280;41486;52.502;13.486;2024-01-06T11:27:19;100615.91;;;-0.60;100.00
55610;BME280;41486;52.502;13.486;2024-01-06T11:29:51;100612.66;;;-0.67;100.00
55610;BME280;41486;52.502;13.486;2024-01-06T11:32:26;100599.31;;;-0.82;100.00
55610;BME280;41486;52.502;13.486;2024-01-06T11:35:05;100604.78;;;-0.64;100.00
55610;BME280;41486;52.502;13.486;2024-01-06T11:37:36;100614.91;;;-0.56;100.00
55610;BME280;41486;52.502;13.486;2024-01-06T11:40:09;100614.97;;;-0.58;100.00
55610;BME280;41486;52.502;13.486;2024-01-06T11:42:42;100601.63;;;-0.74;100.00
55610;BME280;41486;52.502;13.486;2024-01-06T11:45:10;100601.63;;;-0.72;100.00
55610;BME280;41486;52.502;13.486;2024-01-06T11:47:39;100602.19;;;-0.64;100.00
55610;BME280;41486;52.502;13.486;2024-01-06T11:50:08;100602.78;;;-0.54;100.00
55610;BME280;41486;52.502;13.486;2024-01-06T11:52:37;100601.09;;;-0.55;100.00
55610;BME280;41486;52.502;13.486;2024-01-06T11:55:08;100604.00;;;-0.66;100.00
55610;BME280;41486;52.502;13.486;2024-01-06T11:57:36;100601.16;;;-0.58;100.00
55610;BME280;41486;52.502;13.486;2024-01-06T12:00:07;100603.47;;;-0.49;100.00
55610;BME280;41486;52.502;13.486;2024-01-06T12:02:35;100607.19;;;-0.29;100.00
55610;BME280;41486;52.502;13.486;2024-01-06T12:05:04;100608.84;;;-0.27;100.00
55610;BME280;41486;52.502;13.486;2024-01-06T12:07:32;100605.22;;;-0.50;100.00
55610;BME280;41486;52.502;13.486;2024-01-06T12:10:02;100613.00;;;-0.51;100.00
55610;BME280;41486;52.502;13.486;2024-01-06T12:12:31;100606.59;;;-0.38;100.00
55610;BME280;41486;52.502;13.486;2024-01-06T12:15:01;100610.81;;;-0.64;100.00
55610;BME280;41486;52.502;13.486;2024-01-06T12:17:31;100613.97;;;-0.54;100.00
55610;BME280;41486;52.502;13.486;2024-01-06T12:20:02;100615.44;;;-0.45;100.00
55610;BME280;41486;52.502;13.486;2024-01-06T12:22:35;100615.09;;;-0.62;100.00
55610;BME280;41486;52.502;13.486;2024-01-06T12:25:04;100613.81;;;-0.77;100.00
55610;BME280;41486;52.502;13.486;2024-01-06T12:27:33;100614.34;;;-0.66;100.00
55610;BME280;41486;52.502;13.486;2024-01-06T12:30:01;100625.00;;;-0.77;100.00
55610;BME280;41486;52.502;13.486;2024-01-06T12:32:31;100618.03;;;-0.75;100.00
55610;BME280;41486;52.502;13.486;2024-01-06T12:35:00;100623.19;;;-0.73;100.00
55610;BME280;41486;52.502;13.486;2024-01-06T12:37:28;100631.44;;;-0.62;100.00
55610;BME280;41486;52.502;13.486;2024-01-06T12:39:57;100634.88;;;-0.61;100.00
55610;BME280;41486;52.502;13.486;2024-01-06T12:42:25;100634.97;;;-0.65;100.00
55610;BME280;41486;52.502;13.486;2024-01-06T12:44:54;100633.13;;;-0.61;100.00